Sitges, Spain
Current Conditions -  °F | °C
As of 8:00 PM on Friday 28 Nov 2014 (Local Time) from LEBL Reporting Station
Few Clouds Few Clouds  
Wind Chill: 64°   Ceiling: Unl
Heat Index: 64°   Visibility: 4mi
Dew Point: 61°   Wind: 9mph
Humidity: 88%   Direction: 100°E
Pressure: 29.44"   Gusts: NA
Location:  41.24°N, 1.81°E
Report Text: LEBL 281900Z 10008KT 7000 FEW020 18/16 Q0997 NOSIG
Loading
Personal Weather Stations






























Interactive Weather Map New forecast layout! Learn more

10-Day Weather Forecast

Advertisements
Track Severe Weather on mobile